createdAt,value
2023-03-17T00:04:28.538Z,6.00
2023-03-17T00:09:27.389Z,6.00
2023-03-17T00:14:25.592Z,5.90
2023-03-17T00:19:31.099Z,5.90
2023-03-17T00:24:29.753Z,5.80
2023-03-17T00:29:28.156Z,5.80
2023-03-17T00:34:27.332Z,5.70
2023-03-17T00:39:27.267Z,5.70
2023-03-17T00:44:26.544Z,5.60
2023-03-17T00:49:26.799Z,5.50
2023-03-17T00:54:26.497Z,5.50
2023-03-17T00:59:28.901Z,5.50
2023-03-17T01:04:27.109Z,5.60
2023-03-17T01:09:28.442Z,5.50
2023-03-17T01:14:29.412Z,5.60
2023-03-17T01:19:28.156Z,5.50
2023-03-17T01:24:28.644Z,5.40
2023-03-17T01:29:27.253Z,5.60
2023-03-17T01:34:25.601Z,5.40
2023-03-17T01:39:23.917Z,5.40
2023-03-17T01:44:25.830Z,5.40
2023-03-17T01:49:30.099Z,5.30
2023-03-17T01:54:34.859Z,5.30
2023-03-17T01:59:38.018Z,5.20
2023-03-17T02:04:37.588Z,5.10
2023-03-17T02:09:36.510Z,5.00
2023-03-17T02:14:36.556Z,5.00
2023-03-17T02:19:35.393Z,5.00
2023-03-17T02:24:37.972Z,5.00
2023-03-17T02:29:37.977Z,5.00
2023-03-17T02:34:37.417Z,5.00
2023-03-17T02:39:37.458Z,5.00
2023-03-17T02:44:36.322Z,5.10
2023-03-17T02:49:36.190Z,5.10
2023-03-17T02:54:34.510Z,5.00
2023-03-17T02:59:34.104Z,5.00
2023-03-17T03:04:32.782Z,5.00
2023-03-17T03:09:31.001Z,5.00
2023-03-17T03:14:29.222Z,5.00
2023-03-17T03:19:29.000Z,5.00
2023-03-17T03:24:28.023Z,5.00
2023-03-17T03:29:26.253Z,5.00
2023-03-17T03:34:24.583Z,5.00
2023-03-17T03:39:24.228Z,5.00
2023-03-17T03:44:22.462Z,5.10
2023-03-17T03:49:21.220Z,5.10
2023-03-17T03:54:19.276Z,5.00
2023-03-17T03:59:19.065Z,5.00
2023-03-17T04:04:17.314Z,5.10
2023-03-17T04:09:16.220Z,5.10
2023-03-17T04:14:14.448Z,5.20
2023-03-17T04:19:14.054Z,5.20
2023-03-17T04:24:12.648Z,5.10
2023-03-17T04:29:15.625Z,5.20
2023-03-17T04:34:18.803Z,5.20
2023-03-17T04:39:18.101Z,5.10
2023-03-17T04:44:16.421Z,5.10
2023-03-17T04:49:14.921Z,5.30
2023-03-17T04:54:14.613Z,5.10
2023-03-17T04:59:12.699Z,5.00
2023-03-17T05:04:16.712Z,5.00
2023-03-17T05:09:21.893Z,4.90
2023-03-17T05:14:20.115Z,4.90
2023-03-17T05:19:19.159Z,4.90
2023-03-17T05:24:17.373Z,4.80
2023-03-17T05:29:17.089Z,4.80
2023-03-17T05:34:16.084Z,4.80
2023-03-17T05:39:14.758Z,4.90
2023-03-17T05:44:13.615Z,5.00
2023-03-17T05:49:13.251Z,5.00
2023-03-17T05:54:11.474Z,5.00
2023-03-17T05:59:09.762Z,5.10
2023-03-17T06:04:08.628Z,5.10
2023-03-17T06:09:08.541Z,5.00
2023-03-17T06:14:07.394Z,5.10
2023-03-17T06:19:05.989Z,5.10
2023-03-17T06:24:04.855Z,5.10
2023-03-17T06:29:04.532Z,5.20
2023-03-17T06:34:03.237Z,5.40
2023-03-17T06:39:02.193Z,5.40
2023-03-17T06:44:00.387Z,5.40
2023-03-17T06:49:00.122Z,5.40
2023-03-17T06:53:58.561Z,5.50
2023-03-17T06:58:56.830Z,5.60
2023-03-17T07:03:55.582Z,5.70
2023-03-17T07:08:55.168Z,5.50
2023-03-17T07:13:53.458Z,5.70
2023-03-17T07:18:51.809Z,5.80
2023-03-17T07:23:50.039Z,5.80
2023-03-17T07:28:49.633Z,5.90
2023-03-17T07:33:47.953Z,6.10
2023-03-17T07:38:46.771Z,6.30
2023-03-17T07:43:45.085Z,6.50
2023-03-17T07:48:44.687Z,6.60
2023-03-17T07:53:42.998Z,6.70
2023-03-17T07:58:41.843Z,6.90
2023-03-17T08:03:41.634Z,7.00
2023-03-17T08:08:41.444Z,7.30
2023-03-17T08:13:39.664Z,7.50
2023-03-17T08:18:38.234Z,7.70
2023-03-17T08:23:36.652Z,7.90
2023-03-17T08:28:37.544Z,8.10
2023-03-17T08:33:35.917Z,8.20
2023-03-17T08:38:34.598Z,8.30
2023-03-17T08:43:32.921Z,8.90
2023-03-17T08:48:33.933Z,9.10
2023-03-17T08:53:32.878Z,9.00
2023-03-17T08:58:31.290Z,9.10
2023-03-17T09:03:29.671Z,9.20
2023-03-17T09:08:29.563Z,9.30
2023-03-17T09:13:28.420Z,9.40
2023-03-17T09:18:26.639Z,9.40
2023-03-17T09:23:25.096Z,9.60
2023-03-17T09:28:24.819Z,10.40
2023-03-17T09:33:23.232Z,11.20
2023-03-17T09:38:21.650Z,12.00
2023-03-17T09:43:29.972Z,12.60
2023-03-17T09:48:46.505Z,13.30
2023-03-17T09:53:50.879Z,14.30
2023-03-17T09:58:55.178Z,15.70
2023-03-17T10:03:53.880Z,16.00
2023-03-17T10:08:58.749Z,16.50
2023-03-17T10:14:02.004Z,16.50
2023-03-17T10:19:04.604Z,16.00
2023-03-17T10:24:05.372Z,15.60
2023-03-17T10:29:07.685Z,16.00
2023-03-17T10:34:14.746Z,15.70
2023-03-17T10:39:15.576Z,15.70
2023-03-17T10:44:24.136Z,15.80
2023-03-17T10:49:24.697Z,16.90
2023-03-17T10:54:25.761Z,17.60
2023-03-17T11:04:37.575Z,17.70
2023-03-17T11:09:37.769Z,17.40
2023-03-17T11:14:38.487Z,16.90
2023-03-17T11:19:45.268Z,16.70
2023-03-17T11:24:55.526Z,16.90
2023-03-17T11:30:20.177Z,17.60
2023-03-17T11:35:33.353Z,17.10
2023-03-17T11:40:35.755Z,16.50
2023-03-17T11:45:44.979Z,16.30
2023-03-17T11:50:51.647Z,16.20
2023-03-17T11:55:54.558Z,16.10
2023-03-17T12:00:58.328Z,15.90
2023-03-17T12:06:02.034Z,15.80
2023-03-17T12:11:03.699Z,15.80
2023-03-17T12:16:06.855Z,15.50
2023-03-17T12:21:14.794Z,15.50
2023-03-17T12:26:16.420Z,15.70
2023-03-17T12:31:21.764Z,15.70
2023-03-17T12:36:20.505Z,15.70
2023-03-17T12:41:38.423Z,15.50
2023-03-17T12:47:04.915Z,15.50
2023-03-17T12:52:17.965Z,15.60
2023-03-17T12:57:20.334Z,15.60
2023-03-17T13:02:33.382Z,15.40
2023-03-17T13:07:36.093Z,15.10
2023-03-17T13:12:58.317Z,15.20
2023-03-17T13:18:24.101Z,15.20
2023-03-17T13:23:33.946Z,15.20
2023-03-17T13:28:44.734Z,15.00
2023-03-17T13:33:46.580Z,15.00
2023-03-17T13:39:18.696Z,15.10
2023-03-17T13:44:40.778Z,15.00
2023-03-17T13:49:40.702Z,15.20
2023-03-17T13:54:48.096Z,15.50
2023-03-17T13:59:58.745Z,15.80
2023-03-17T14:05:00.559Z,15.50
2023-03-17T14:10:02.330Z,15.30
2023-03-17T14:15:08.171Z,15.20
2023-03-17T14:20:21.857Z,15.20
2023-03-17T14:25:23.372Z,15.40
2023-03-17T14:30:24.650Z,15.20
2023-03-17T14:35:24.210Z,15.20
2023-03-17T14:40:24.528Z,15.20
2023-03-17T14:45:29.435Z,15.30
2023-03-17T14:50:33.025Z,15.30
2023-03-17T14:55:38.364Z,15.40
2023-03-17T15:00:38.733Z,15.50
2023-03-17T15:05:41.851Z,15.40
2023-03-17T15:10:44.811Z,15.40
2023-03-17T15:15:44.438Z,15.50
2023-03-17T15:20:45.968Z,15.40
2023-03-17T15:25:46.611Z,15.20
2023-03-17T15:30:48.214Z,15.00
2023-03-17T15:35:48.252Z,15.10
2023-03-17T15:40:46.393Z,15.00
2023-03-17T15:45:46.353Z,15.00
2023-03-17T15:50:46.562Z,14.80
2023-03-17T15:55:47.327Z,14.70
2023-03-17T16:00:48.214Z,14.70
2023-03-17T16:05:46.650Z,14.70
2023-03-17T16:10:47.307Z,14.60
2023-03-17T16:15:50.097Z,14.50
2023-03-17T16:20:51.177Z,14.50
2023-03-17T16:25:52.642Z,14.40
2023-03-17T16:30:54.459Z,14.30
2023-03-17T16:35:54.651Z,14.20
2023-03-17T16:40:55.949Z,14.10
2023-03-17T16:45:55.984Z,14.10
2023-03-17T16:50:54.512Z,14.00
2023-03-17T16:55:55.277Z,13.80
2023-03-17T17:00:55.652Z,13.80
2023-03-17T17:05:53.856Z,13.70
2023-03-17T17:10:53.513Z,13.60
2023-03-17T17:15:51.807Z,13.50
2023-03-17T17:20:50.988Z,13.40
2023-03-17T17:25:49.971Z,13.30
2023-03-17T17:30:49.682Z,13.30
2023-03-17T17:35:49.393Z,13.30
2023-03-17T17:40:48.938Z,13.20
2023-03-17T17:45:49.364Z,13.10
2023-03-17T17:50:49.300Z,13.20
2023-03-17T17:55:49.166Z,13.10
2023-03-17T18:00:47.742Z,13.10
2023-03-17T18:05:45.978Z,13.10
2023-03-17T18:10:45.619Z,13.10
2023-03-17T18:15:44.330Z,13.00
2023-03-17T18:20:42.525Z,13.00
2023-03-17T18:25:41.259Z,12.90
2023-03-17T18:30:41.000Z,12.80
2023-03-17T18:35:39.608Z,12.80
2023-03-17T18:40:38.046Z,12.70
2023-03-17T18:45:36.362Z,12.60
2023-03-17T18:50:37.139Z,12.50
2023-03-17T18:55:35.433Z,12.40
2023-03-17T19:00:33.877Z,12.40
2023-03-17T19:05:32.141Z,12.30
2023-03-17T19:10:31.978Z,12.30
2023-03-17T19:15:30.313Z,12.20
2023-03-17T19:20:28.748Z,12.20
2023-03-17T19:25:27.334Z,12.30
2023-03-17T19:30:27.220Z,12.30
2023-03-17T19:35:25.987Z,12.30
2023-03-17T19:40:24.304Z,12.30
2023-03-17T19:45:22.658Z,12.20
2023-03-17T19:50:22.344Z,12.10
2023-03-17T19:55:21.057Z,12.00
2023-03-17T20:00:20.988Z,12.00
2023-03-17T20:05:21.248Z,12.00
2023-03-17T20:10:19.717Z,12.00
2023-03-17T20:15:18.109Z,12.00
2023-03-17T20:20:16.383Z,11.90
2023-03-17T20:25:16.318Z,11.80
2023-03-17T20:30:14.724Z,11.80
2023-03-17T20:35:13.034Z,11.80
2023-03-17T20:40:12.840Z,11.80
2023-03-17T20:45:12.490Z,11.80
2023-03-17T20:50:13.174Z,11.80
2023-03-17T20:55:14.333Z,11.80
2023-03-17T21:00:17.919Z,11.70
2023-03-17T21:05:18.073Z,11.70
2023-03-17T21:10:16.988Z,11.60
2023-03-17T21:15:17.102Z,11.60
2023-03-17T21:20:17.086Z,11.60
2023-03-17T21:25:15.997Z,11.50
2023-03-17T21:30:16.630Z,11.40
2023-03-17T21:35:15.293Z,11.30
2023-03-17T21:40:15.736Z,11.40
2023-03-17T21:45:14.329Z,11.40
2023-03-17T21:50:17.568Z,11.30
2023-03-17T21:55:16.069Z,11.20
2023-03-17T22:00:14.941Z,11.20
2023-03-17T22:05:14.625Z,11.20
2023-03-17T22:10:13.652Z,11.10
2023-03-17T22:15:12.667Z,11.10
2023-03-17T22:20:12.358Z,11.00
2023-03-17T22:25:12.230Z,10.90
2023-03-17T22:30:12.539Z,10.90
2023-03-17T22:35:11.334Z,10.90
2023-03-17T22:40:12.527Z,10.90
2023-03-17T22:45:13.175Z,10.90
2023-03-17T22:50:12.650Z,10.80
2023-03-17T22:55:12.369Z,10.70
2023-03-17T23:00:16.608Z,10.60
2023-03-17T23:05:16.174Z,10.50
2023-03-17T23:10:17.859Z,10.50
2023-03-17T23:15:16.507Z,10.50
2023-03-17T23:20:16.280Z,10.40
2023-03-17T23:25:16.384Z,10.30
2023-03-17T23:30:16.192Z,10.30
2023-03-17T23:35:15.120Z,10.30
2023-03-17T23:40:17.410Z,10.20
2023-03-17T23:45:15.928Z,10.10
2023-03-17T23:50:15.837Z,10.10
2023-03-17T23:55:17.189Z,10.20
